Latest Coastal Weather Observations for Hobart

IDT60701

Issued at 6:22 pm EDT Friday 3 December 2021 (issued every 10 minutes, with the page automatically refreshed every 10 minutes)

About coastal observations | Map of coastal stations | Coastal observations for TAS | Marine services | Other Formats
Station Details ID: 094029 Name: HOBART (ELLERSLIE ROAD) Lat: -42.89 Lon: 147.33 Height: 50.5 m
Data from the previous 72 hours. | See also: Recent months at Hobart
Date/Time
EDT
Wind Sea
Height
m
Swell Vis
km
Cloud Weather Temp
°C
Press
MSL
hPa
Rain since
9am
mm
Dir  Spd
kts
Gust
kts
Height
m
Period
s
Dir
03/06:00pm E 8 14 - - - - - - - 15.7 1013.3 0.2
03/05:30pm SE 11 15 - - - - - - - 15.7 1013.7 0.2
03/05:00pm E 12 15 - - - - - - - 16.4 1013.7 0.2
03/04:30pm E 11 16 - - - - - - - 16.8 1013.8 0.2
03/04:00pm SE 12 16 - - - - - - - 17.3 1014.0 0.2
03/03:30pm SE 10 13 - - - - - - - 18.1 1014.1 0.2
03/03:00pm SE 9 12 - - - - - - - 18.2 1014.5 0.2
03/02:30pm SE 10 13 - - - - - - - 18.2 1014.7 0.2
03/02:00pm ESE 10 13 - - - - - - - 17.3 1015.0 0.2
03/01:30pm ESE 10 15 - - - - - - - 17.4 1015.3 0.2
03/01:00pm ESE 8 11 - - - - - - - 17.0 1015.7 0.2
03/12:30pm ESE 9 13 - - - - - - - 17.3 1015.7 0.2
03/12:00pm SSE 6 11 - - - - - - - 16.7 1016.1 0.2
03/11:30am E 7 9 - - - - - - - 17.1 1016.2 0.2
03/11:00am ESE 9 12 - - - - - - - 17.0 1016.2 0.2
03/10:30am E 8 10 - - - - - - - 17.0 1016.3 0.2
03/10:00am E 7 10 - - - - - - - 17.0 1016.3 0.0
03/09:30am ESE 9 11 - - - - - - - 16.3 1016.3 0.0
03/09:00am ESE 10 15 - - - - - - - 15.8 1016.2 31.2
03/08:30am ESE 8 13 - - - - - - - 16.0 1015.7 31.2
03/08:00am ESE 7 9 - - - - - - - 15.3 1015.7 31.2
03/07:30am NNE 6 9 - - - - - - - 14.6 1015.7 31.2
03/07:00am WSW 4 6 - - - - - - - 13.7 1015.1 31.2
03/06:30am SW 3 7 - - - - - - - 13.1 1014.8 31.2
03/06:00am S 6 7 - - - - - - - 10.9 1014.4 31.2
03/05:30am W 7 12 - - - - - - - 10.2 1014.0 31.2
03/05:00am S 4 7 - - - - - - - 11.0 1013.5 31.2
03/04:30am NW 3 8 - - - - - - - 11.1 1013.2 31.2
03/04:00am S 4 6 - - - - - - - 11.0 1013.1 31.2
03/03:30am SW 4 9 - - - - - - - 11.5 1012.9 31.2
03/03:00am NW 10 14 - - - - - - - 11.8 1012.8 31.2
03/02:30am NNW 7 12 - - - - - - - 12.8 1012.9 31.2
03/02:00am W 8 18 - - - - - - - 12.4 1012.9 31.2
03/01:30am NW 13 18 - - - - - - - 13.0 1012.7 31.2
03/01:00am E 5 8 - - - - - - - 13.7 1012.7 31.2
03/12:30am E 8 11 - - - - - - - 13.7 1012.8 31.2
03/12:00am ESE 5 7 - - - - - - - 13.7 1012.6 31.2
 
Date/Time
EDT
Wind Sea
Height
m
Swell Vis
km
Cloud Weather Temp
°C
Press
MSL
hPa
Rain since
9am
mm
Dir  Spd
kts
Gust
kts
Height
m
Period
s
Dir
02/11:30pm E 3 4 - - - - - - - 13.8 1012.4 31.2
02/11:00pm NNE 3 6 - - - - - - - 13.8 1012.3 31.2
02/10:30pm ENE 4 5 - - - - - - - 13.7 1011.8 31.2
02/10:00pm ESE 7 9 - - - - - - - 13.8 1011.4 31.2
02/09:30pm ESE 3 5 - - - - - - - 13.9 1010.8 31.2
02/09:00pm ESE 9 12 - - - - - - Rain 13.6 1010.0 30.6
02/08:30pm SSE 8 13 - - - - - - - 14.4 1010.0 25.6
02/08:00pm SE 11 17 - - - - - - - 14.4 1009.3 24.0
02/07:30pm SE 11 15 - - - - - - - 14.7 1009.4 23.4
02/07:00pm SE 14 19 - - - - - - - 15.0 1009.0 20.4
02/06:30pm ESE 10 16 - - - - - - - 15.5 1008.6 20.4
02/06:00pm SE 7 11 - - - - - - Rain 15.7 1009.3 19.6
02/05:30pm S 9 15 - - - - - - - 16.5 1008.3 0.8
02/05:14pm SE 15 25 - - - - - - - 16.5 1007.4 0.6
02/05:00pm SE 15 20 - - - - - - - 17.5 1007.6 0.6
02/04:30pm SSE 14 21 - - - - - - - 18.8 1008.5 0.6
02/04:00pm ESE 15 20 - - - - - - - 19.2 1008.4 0.6
02/03:30pm ESE 11 15 - - - - - - - 21.4 1008.0 0.0
02/03:00pm ESE 9 13 - - - - - - - 21.5 1008.3 0.0
02/02:30pm ESE 10 13 - - - - - - - 21.8 1008.5 0.0
02/02:00pm ESE 10 14 - - - - - - - 22.2 1008.7 0.0
02/01:30pm ESE 7 10 - - - - - - - 22.0 1009.3 0.0
02/01:00pm ESE 7 9 - - - - - - - 21.5 1009.8 0.0
02/12:30pm ESE 7 9 - - - - - - - 20.9 1010.2 0.0
02/12:00pm ESE 7 9 - - - - - - - 22.2 1010.6 0.0
02/11:30am ESE 6 7 - - - - - - - 21.9 1011.2 0.0
02/11:00am ESE 6 8 - - - - - - - 20.8 1011.6 0.0
02/10:30am ESE 7 8 - - - - - - - 19.8 1011.9 0.0
02/10:00am SSE 5 7 - - - - - - - 19.8 1012.3 0.0
02/09:30am NNE 4 7 - - - - - - - 20.3 1012.8 0.0
02/09:00am N 4 7 - - - - - - - 19.3 1013.3 0.0
02/08:30am NNW 5 8 - - - - - - - 18.5 1013.6 0.0
02/08:00am N 4 6 - - - - - - - 18.1 1013.7 0.0
02/07:30am NE 5 7 - - - - - - - 17.2 1013.6 0.0
02/07:00am NE 5 7 - - - - - - - 16.0 1013.5 0.0
02/06:30am NE 3 5 - - - - - - - 15.5 1013.7 0.0
02/06:00am NE 4 5 - - - - - - - 15.2 1013.6 0.0
02/05:30am ENE 4 6 - - - - - - - 15.2 1013.5 0.0
02/05:00am ENE 4 6 - - - - - - - 15.2 1013.6 0.0
02/04:30am ENE 4 5 - - - - - - - 15.2 1013.7 0.0
02/04:00am E 4 5 - - - - - - - 15.2 1013.8 0.0
02/03:30am E 4 5 - - - - - - - 15.2 1013.9 0.0
02/03:00am ENE 5 6 - - - - - - - 15.3 1014.1 0.0
02/02:30am ESE 4 6 - - - - - - - 15.2 1014.3 0.0
02/02:00am SE 5 6 - - - - - - - 15.3 1014.4 0.0
02/01:30am ESE 5 6 - - - - - - - 15.3 1014.5 0.0
02/01:00am SE 5 7 - - - - - - - 15.3 1014.7 0.0
02/12:30am SE 6 8 - - - - - - - 15.3 1015.0 0.0
02/12:00am SE 9 11 - - - - - - - 15.2 1015.2 0.0
 
Date/Time
EDT
Wind Sea
Height
m
Swell Vis
km
Cloud Weather Temp
°C
Press
MSL
hPa
Rain since
9am
mm
Dir  Spd
kts
Gust
kts
Height
m
Period
s
Dir
01/11:30pm SE 9 12 - - - - - - - 15.3 1015.3 0.0
01/11:00pm SE 9 12 - - - - - - - 15.4 1015.2 0.0
01/10:30pm SE 8 13 - - - - - - - 15.5 1015.4 0.0
01/10:00pm SE 8 13 - - - - - - - 15.6 1015.3 0.0
01/09:30pm SE 8 11 - - - - - - - 15.7 1015.1 0.0
01/09:00pm SE 8 12 - - - - - - - 15.7 1014.7 0.0
01/08:30pm SE 9 14 - - - - - - - 16.0 1014.5 0.0
01/08:00pm S 8 13 - - - - - - - 16.4 1014.1 0.0
01/07:30pm SE 11 15 - - - - - - - 17.0 1013.6 0.0
01/07:00pm SE 11 15 - - - - - - - 17.8 1013.2 0.0
01/06:30pm SE 14 18 - - - - - - - 18.7 1012.4 0.0
01/06:00pm ESE 14 18 - - - - - - - 19.5 1011.7 0.0
01/05:30pm ESE 7 11 - - - - - - - 20.5 1011.4 0.0
01/05:00pm SSW 12 21 - - - - - - - 20.5 1011.3 0.0
01/04:30pm S 9 16 - - - - - - - 22.1 1011.1 0.0
01/04:00pm SE 15 19 - - - - - - - 22.2 1010.9 0.0
01/03:30pm SE 14 21 - - - - - - - 24.0 1010.7 0.0
01/03:00pm WSW 6 15 - - - - - - - 26.9 1010.5 0.0
01/02:30pm SE 5 9 - - - - - - - 24.7 1010.4 0.0
01/02:29pm ESE 5 8 - - - - - - - 25.1 1010.4 0.0
01/02:00pm NE 8 11 - - - - - - - 30.3 1010.3 0.0
01/01:30pm N 7 10 - - - - - - - 30.1 1010.6 0.0
01/01:00pm NNW 10 15 - - - - - - - 29.9 1010.7 0.0
01/12:30pm NNW 11 16 - - - - - - - 27.6 1010.8 0.0
01/12:00pm NNW 14 19 - - - - - - - 26.9 1011.0 0.0
01/11:30am NNW 15 21 - - - - - - - 25.8 1011.2 0.0
01/11:00am NNW 13 19 - - - - - - - 25.6 1011.5 0.0
01/10:30am NNW 14 19 - - - - - - - 22.9 1011.6 0.0
01/10:00am NNW 15 20 - - - - - - - 23.5 1011.7 0.0
01/09:30am NNW 18 23 - - - - - - - 21.6 1011.5 0.0
01/09:00am NNW 17 22 - - - - - - - 20.1 1011.4 0.0
01/08:30am NNW 18 24 - - - - - - - 19.2 1011.5 0.0
01/08:00am NNW 18 24 - - - - - - - 19.2 1011.2 0.0
01/07:30am NNW 17 25 - - - - - - - 18.3 1011.1 0.0
01/07:00am NW 19 27 - - - - - - - 17.2 1010.9 0.0
01/06:30am NW 18 25 - - - - - - - 16.4 1010.8 0.0
01/06:00am NNW 19 27 - - - - - - - 15.6 1010.6 0.0
01/05:00am NNW 16 23 - - - - - - - 15.3 1010.8 0.0
01/04:30am NNW 12 17 - - - - - - - 15.9 1010.9 0.0
01/04:00am N 11 17 - - - - - - - 16.1 1010.9 0.0
01/03:30am N 13 18 - - - - - - - 16.7 1010.9 0.0
01/03:00am NNW 12 17 - - - - - - - 16.5 1010.9 0.0
01/02:30am NNW 6 8 - - - - - - - 15.6 1011.4 0.0
01/02:00am NW 5 10 - - - - - - - 15.5 1011.6 0.0
01/01:30am N 4 6 - - - - - - - 15.4 1011.6 0.0
01/01:00am NNW 2 5 - - - - - - - 15.4 1011.8 0.0
01/12:30am WSW 6 10 - - - - - - - 15.7 1012.0 0.0
01/12:00am WSW 5 7 - - - - - - - 15.8 1012.2 0.0
 
Date/Time
EDT
Wind Sea
Height
m
Swell Vis
km
Cloud Weather Temp
°C
Press
MSL
hPa
Rain since
9am
mm
Dir  Spd
kts
Gust
kts
Height
m
Period
s
Dir
30/11:30pm WSW 5 7 - - - - - - - 16.2 1012.5 0.0
30/11:00pm SSW 5 7 - - - - - - - 16.7 1012.8 0.0
30/10:30pm SE 4 5 - - - - - - - 17.6 1012.8 0.0
30/10:00pm ESE 3 5 - - - - - - - 18.0 1012.9 0.0
30/09:30pm ENE 6 9 - - - - - - - 18.4 1012.5 0.0
30/09:00pm ENE 5 7 - - - - - - - 18.9 1012.3 0.0
30/08:30pm ENE 8 11 - - - - - - - 19.6 1012.1 0.0
30/08:00pm ENE 7 10 - - - - - - - 20.4 1012.1 0.0
30/07:30pm ENE 7 12 - - - - - - - 21.2 1011.8 0.0
30/07:00pm ENE 7 10 - - - - - - - 22.0 1011.8 0.0
30/06:30pm ENE 7 10 - - - - - - - 22.6 1011.7 0.0

Other formats

Comma delimited format used in spreadsheet applications
http://www.bom.gov.au/fwo/IDT60701/IDT60701.94970.axf

JavaScript Object Notation format (JSON) in row-major order
http://www.bom.gov.au/fwo/IDT60701/IDT60701.94970.json

Data quality

Most of these data are generated automatically and are frequently updated. Quality checks on data are not normally performed. It is possible for incorrect values to appear. Refer to information at About Latest Weather Observations and please check the disclaimer before using these data.